Flight Track Log - Related Links

Times and Time Zones

All times are in EDT time to prevent confusion due to time zone crossing. See the UAE809 flight status page for this flight to view local times or setup timezone preferences in your user account.

Time Position Orientation Groundspeed Altitude Reporting Facility
EDT Latitude Longitude Course Direction KTS MPH feet Rate Location/Type
Mon 06:31:00 AM 25.2558 55.2520 271° West  Level Estimated
Mon 06:32:00 AM 25.2566 55.1398 270° West  Level Estimated
Mon 06:33:00 AM 25.2573 55.0276 270° West  Level Estimated
Mon 06:34:00 AM 25.2579 54.9153 270° West  Level Estimated
Mon 06:35:00 AM 25.2584 54.8031 270° West  Level Estimated
Mon 06:36:00 AM 25.2588 54.6908 270° West  Level Estimated
Mon 06:37:00 AM 25.2592 54.5786 270° West  Level Estimated
Mon 06:38:00 AM 25.2594 54.4663 270° West  Level Estimated
Mon 06:39:00 AM 25.2596 54.3541 270° West  Level Estimated
Mon 06:40:00 AM 25.2597 54.2419 270° West  Level Estimated
Mon 06:41:00 AM 25.2597 54.1296 270° West  Level Estimated
Mon 06:42:00 AM 25.2596 54.0173 270° West  Level Estimated
Mon 06:43:00 AM 25.2594 53.9051 270° West  Level Estimated
Mon 06:44:00 AM 25.2592 53.7929 270° West  Level Estimated
Mon 06:45:00 AM 25.2588 53.6806 270° West  Level Estimated
Mon 06:46:00 AM 25.2584 53.5684 270° West  Level Estimated
Mon 06:47:00 AM 25.2579 53.4561 270° West  Level Estimated
Mon 06:48:00 AM 25.2573 53.3439 270° West  Level Estimated
Mon 06:49:00 AM 25.2566 53.2317 270° West  Level Estimated
Mon 06:50:00 AM 25.2559 53.1269 270° West  Level Estimated
Mon 06:51:00 AM 25.2551 53.0221 270° West  Level Estimated
Mon 06:52:00 AM 25.2543 52.9174 270° West  Level Estimated
Mon 06:53:00 AM 25.2534 52.8126 269° West  Level Estimated
Mon 06:54:00 AM 25.2524 52.7079 269° West  Level Estimated
Mon 06:55:00 AM 25.2513 52.6031 269° West  Level Estimated
Mon 06:56:00 AM 25.2501 52.4984 269° West  Level Estimated
Mon 06:57:00 AM 25.2489 52.3936 269° West  Level Estimated
Mon 06:58:00 AM 25.2476 52.2889 269° West  Level Estimated
Mon 06:59:00 AM 25.2462 52.1842 269° West  Level Estimated
Mon 07:00:00 AM 25.2448 52.0794 269° West  Level Estimated
Mon 07:01:00 AM 25.2433 51.9747 269° West  Level Estimated
Mon 07:02:00 AM 25.2417 51.8699 269° West  Level Estimated
Mon 07:03:00 AM 25.2400 51.7652 269° West  Level Estimated
Mon 07:04:00 AM 25.2383 51.6605 269° West  Level Estimated
Mon 07:05:00 AM 25.2364 51.5558 269° West  Level Estimated
Mon 07:06:00 AM 25.2346 51.4510 269° West  Level Estimated
Mon 07:07:00 AM 25.2326 51.3463 269° West  Level Estimated
Mon 07:07:54 AM 26.5529 50.9775 290° West 439 505 32,000  Level FlightAware ADS-B (OBBI / BAH)
Mon 07:08:00 AM 25.2306 51.2416 269° West  Level Estimated
Mon 07:08:24 AM 26.5741 50.9104 290° West 438 504 32,000  Level FlightAware ADS-B (OBBI / BAH)
Mon 07:08:54 AM 26.5938 50.8477 290° West 437 503 32,000  Level FlightAware ADS-B (OBBI / BAH)
Mon 07:09:24 AM 26.6146 50.7818 290° West 436 502 32,000  Level FlightAware ADS-B (OBBI / BAH)
Mon 07:09:55 AM 26.6347 50.7180 290° West 437 503 32,000  Level FlightAware ADS-B (OBBI / BAH)
Mon 07:10:50 AM 26.6694 50.6003 288° West 437 503 32,000  Level FlightAware ADS-B (OBBI / BAH)
Mon 07:11:19 AM 26.6877 50.5372 289° West 436 502 32,000  Level FlightAware ADS-B (OBBI / BAH)
Mon 07:11:49 AM 26.7066 50.4721 289° West 436 502 32,000  Level FlightAware ADS-B (OBBI / BAH)
Mon 07:12:17 AM 26.7231 50.4156 289° West 436 502 32,000  Level FlightAware ADS-B (OBBI / BAH)
Mon 07:12:50 AM 26.7443 50.3432 288° West 436 502 32,000  Level FlightAware ADS-B (OBBI / BAH)
Mon 07:13:19 AM 26.7557 50.2789 275° West 437 503 32,000  Level FlightAware ADS-B (OBBI / BAH)
Mon 07:14:14 AM 26.7545 50.1526 268° West 439 505 32,000  Level FlightAware ADS-B (OBBI / BAH)
Mon 07:14:44 AM 26.7521 50.0846 268° West 439 505 32,000  Level FlightAware ADS-B (OBBI / BAH)
Mon 07:15:14 AM 26.7498 50.0172 268° West 439 505 32,000  Level FlightAware ADS-B (OBBI / BAH)
Mon 07:15:45 AM 26.7477 49.9478 269° West 439 505 32,000  Level FlightAware ADS-B (OBBI / BAH)
Mon 07:16:14 AM 26.7457 49.8808 269° West 439 505 32,000  Level FlightAware ADS-B (OBBI / BAH)
Mon 07:16:44 AM 26.7437 49.8128 269° West 439 505 32,000  Level FlightAware ADS-B (OBBI / BAH)
Mon 07:17:05 AM 26.7432 49.7955 269° West 440 506 32,000  Level FlightAware ADS-B (OBBI / BAH)
Mon 07:17:32 AM 26.7406 49.7104 269° West 442 509 32,000  Level FlightAware ADS-B (OBBI / BAH)
Mon 07:18:12 AM 26.7376 49.6146 268° West 445 512 32,000  Level FlightAware ADS-B (OBBI / BAH)
Mon 07:19:19 AM 26.7314 49.4611 265° West 440 506 32,000  Level FlightAware ADS-B (OBBI / BAH)
Mon 07:20:34 AM 26.6857 49.3045 247° West 446 513 32,000  Level FlightAware ADS-B (OBBI / BAH)
Mon 07:21:01 AM 26.6606 49.2413 246° West 446 513 32,000  Level FlightAware ADS-B (OBBI / BAH)
Mon 07:23:00 AM 26.6224 49.0355 258° West  Level Estimated
Mon 07:24:00 AM 26.6031 48.9318 258° West  Level Estimated
Mon 07:25:00 AM 26.5836 48.8280 258° West  Level Estimated
Mon 07:26:00 AM 26.5641 48.7244 258° West  Level Estimated
Mon 07:27:00 AM 26.5445 48.6207 258° West  Level Estimated
Mon 07:28:00 AM 26.5249 48.5172 258° West  Level Estimated
Mon 07:29:00 AM 26.5052 48.4136 258° West  Level Estimated
Mon 07:30:00 AM 26.4853 48.3101 258° West  Level Estimated
Mon 07:31:00 AM 26.4655 48.2066 258° West  Level Estimated
Mon 07:32:00 AM 26.4455 48.1031 258° West  Level Estimated
Mon 07:33:00 AM 26.4255 47.9997 258° West  Level Estimated
Mon 07:34:00 AM 26.4054 47.8963 258° West  Level Estimated
Mon 07:35:00 AM 26.3852 47.7930 258° West  Level Estimated
Mon 07:36:00 AM 26.3650 47.6897 258° West  Level Estimated
Mon 07:37:00 AM 26.3446 47.5864 258° West  Level Estimated
Mon 07:38:00 AM 26.3242 47.4831 258° West  Level Estimated
Mon 07:39:00 AM 26.3038 47.3799 258° West  Level Estimated
Mon 07:40:00 AM 26.2832 47.2768 257° West  Level Estimated
Mon 07:41:00 AM 26.2626 47.1736 257° West  Level Estimated
Mon 07:42:00 AM 26.2419 47.0705 257° West  Level Estimated
Mon 07:43:00 AM 26.2211 46.9675 257° West  Level Estimated
Mon 07:44:00 AM 26.2003 46.8645 257° West  Level Estimated
Mon 07:45:00 AM 26.1794 46.7615 257° West  Level Estimated
Mon 07:46:00 AM 26.1584 46.6586 257° West  Level Estimated
Mon 07:47:00 AM 26.1373 46.5556 257° West  Level Estimated
Mon 07:48:00 AM 26.1162 46.4528 257° West  Level Estimated
Mon 07:49:00 AM 26.0950 46.3499 257° West  Level Estimated
Mon 07:50:00 AM 26.0737 46.2472 257° West  Level Estimated
Mon 07:51:00 AM 26.0524 46.1444 257° West  Level Estimated
Mon 07:52:00 AM 26.0309 46.0417 257° West  Level Estimated
Mon 07:53:00 AM 26.0095 45.9390 257° West  Level Estimated
Mon 07:54:00 AM 25.9879 45.8363 257° West  Level Estimated
Mon 07:55:00 AM 25.9662 45.7337 257° West  Level Estimated
Mon 07:56:00 AM 25.9445 45.6312 257° West  Level Estimated
Mon 07:57:00 AM 25.9227 45.5286 257° West  Level Estimated
Mon 07:58:00 AM 25.9009 45.4261 257° West  Level Estimated
Mon 07:59:00 AM 25.8789 45.3237 257° West  Level Estimated
Mon 08:00:00 AM 25.8569 45.2213 257° West  Level Estimated
Mon 08:01:00 AM 25.8349 45.1189 257° West  Level Estimated
Mon 08:02:00 AM 25.8127 45.0165 257° West  Level Estimated
Mon 08:03:00 AM 25.7905 44.9142 256° West  Level Estimated
Mon 08:04:00 AM 25.7682 44.8120 256° West  Level Estimated
Mon 08:05:00 AM 25.7458 44.7098 256° West  Level Estimated
Mon 08:06:00 AM 25.7234 44.6076 256° West  Level Estimated
Mon 08:07:00 AM 25.7009 44.5054 256° West  Level Estimated
Mon 08:08:00 AM 25.6783 44.4033 256° West  Level Estimated
Mon 08:09:00 AM 25.6557 44.3012 256° West  Level Estimated
Mon 08:10:00 AM 25.6330 44.1992 256° West  Level Estimated
Mon 08:11:00 AM 25.6102 44.0972 256° West  Level Estimated
Mon 08:12:00 AM 25.5873 43.9953 256° West  Level Estimated
Mon 08:13:00 AM 25.5644 43.8933 256° West  Level Estimated
Mon 08:14:00 AM 25.5414 43.7915 256° West  Level Estimated
Mon 08:15:00 AM 25.5183 43.6896 256° West  Level Estimated
Mon 08:16:00 AM 25.4952 43.5878 256° West  Level Estimated
Mon 08:17:00 AM 25.4720 43.4861 256° West  Level Estimated
Mon 08:18:00 AM 25.4487 43.3843 256° West  Level Estimated
Mon 08:19:00 AM 25.4254 43.2827 256° West  Level Estimated
Mon 08:20:00 AM 25.4019 43.1810 256° West  Level Estimated
Mon 08:21:00 AM 25.3784 43.0794 256° West  Level Estimated
Mon 08:22:00 AM 25.3549 42.9779 256° West  Level Estimated
Mon 08:23:00 AM 25.3312 42.8763 256° West  Level Estimated
Mon 08:24:00 AM 25.3076 42.7748 256° West  Level Estimated
Mon 08:25:00 AM 25.2838 42.6734 255° West  Level Estimated
Mon 08:26:00 AM 25.2600 42.5720 255° West  Level Estimated
Mon 08:27:00 AM 25.2360 42.4706 255° West  Level Estimated
Mon 08:28:00 AM 25.2121 42.3693 255° West  Level Estimated
Mon 08:29:00 AM 25.1880 42.2680 255° West  Level Estimated
Mon 08:30:00 AM 25.1639 42.1668 255° West  Level Estimated
Mon 08:31:00 AM 25.1397 42.0656 255° West  Level Estimated
Mon 08:32:00 AM 25.1155 41.9644 255° West  Level Estimated
Mon 08:33:00 AM 25.0912 41.8633 255° West  Level Estimated
Mon 08:34:00 AM 25.0668 41.7622 255° West  Level Estimated
Mon 08:35:00 AM 25.0423 41.6612 255° West  Level Estimated
Mon 08:36:00 AM 25.0178 41.5602 255° West  Level Estimated
Mon 08:37:00 AM 24.9932 41.4592 255° West  Level Estimated
Mon 08:38:00 AM 24.9685 41.3583 255° West  Level Estimated
Mon 08:39:00 AM 24.9438 41.2574 255° West  Level Estimated
Mon 08:40:00 AM 24.9190 41.1566 255° West  Level Estimated
Mon 08:41:00 AM 24.8941 41.0558 255° West  Level Estimated
Mon 08:42:00 AM 24.8692 40.9550 255° West  Level Estimated
Mon 08:43:00 AM 24.8442 40.8543 255° West  Level Estimated
Mon 08:44:00 AM 24.8191 40.7536 255° West  Level Estimated
Mon 08:45:00 AM 24.7940 40.6530 255° West  Level Estimated
Mon 08:46:00 AM 24.7688 40.5524 255° West  Level Estimated
Mon 08:47:00 AM 24.7435 40.4518 255° West  Level Estimated
Mon 08:48:00 AM 24.7182 40.3513 255° West  Level Estimated
Mon 08:49:00 AM 24.6928 40.2508 254° West  Level Estimated
Mon 08:50:00 AM 24.6673 40.1504 254° West  Level Estimated
Mon 08:51:00 AM 24.6418 40.0500 254° West  Level Estimated
Mon 08:52:00 AM 24.6162 39.9497 254° West  Level Estimated
Mon 08:53:00 AM 24.5905 39.8494 254° West  Level Estimated
Mon 08:54:00 AM 24.5648 39.7491 254° West  Level Estimated
Mon 08:55:00 AM 24.5534 39.7051 254° West  Level Estimated
Mon 08:56:00 AM 24.5534 39.7051 North  Level Estimated
Mon 08:57:00 AM 24.5534 39.7051 North  Level Estimated
Mon 08:58:00 AM 24.5534 39.7051 North  Level Estimated

Login

Don't have an account? Register now (free) for customized features, flight alerts, and more!